createdAt,value
2024-02-08T00:01:23.640Z,99215.78
2024-02-08T00:04:52.582Z,99216.87
2024-02-08T00:08:21.311Z,99217.50
2024-02-08T00:11:51.108Z,99217.86
2024-02-08T00:15:19.738Z,99224.69
2024-02-08T00:18:48.420Z,99225.76
2024-02-08T00:22:17.361Z,99224.57
2024-02-08T00:25:46.107Z,99227.49
2024-02-08T00:29:15.096Z,99233.91
2024-02-08T00:32:43.874Z,99234.98
2024-02-08T00:36:12.774Z,99237.67
2024-02-08T00:39:41.649Z,99240.56
2024-02-08T00:43:12.462Z,99243.76
2024-02-08T00:46:41.001Z,99247.48
2024-02-08T00:50:09.640Z,99246.13
2024-02-08T00:53:38.499Z,99254.54
2024-02-08T00:57:07.742Z,99257.94
2024-02-08T01:00:36.631Z,99266.23
2024-02-08T01:04:10.964Z,99265.31
2024-02-08T01:07:40.832Z,99271.20
2024-02-08T01:11:09.792Z,99278.33
2024-02-08T01:14:41.002Z,99283.27
2024-02-08T01:18:12.679Z,99279.97
2024-02-08T01:21:42.249Z,99282.59
2024-02-08T01:25:11.008Z,99290.60
2024-02-08T01:28:39.736Z,99284.21
2024-02-08T01:32:08.720Z,99282.77
2024-02-08T01:35:37.605Z,99284.05
2024-02-08T01:39:08.598Z,99279.48
2024-02-08T01:42:37.475Z,99274.55
2024-02-08T01:46:11.803Z,99276.32
2024-02-08T01:49:20.189Z,99277.32
2024-02-08T01:52:48.825Z,99279.39
2024-02-08T01:56:17.408Z,99287.65
2024-02-08T01:59:46.257Z,99285.60
2024-02-08T02:03:14.887Z,99286.89
2024-02-08T02:06:37.516Z,99282.15
2024-02-08T02:10:06.309Z,99283.55
2024-02-08T02:13:35.417Z,99285.33
2024-02-08T02:17:03.475Z,99289.28
2024-02-08T02:20:32.244Z,99289.42
2024-02-08T02:24:00.888Z,99292.60
2024-02-08T02:27:29.436Z,99293.97
2024-02-08T02:30:57.955Z,99295.73
2024-02-08T02:34:16.704Z,99295.36
2024-02-08T02:37:38.477Z,99298.48
2024-02-08T02:41:12.381Z,99296.66
2024-02-08T02:44:41.106Z,99296.77
2024-02-08T02:48:02.448Z,99290.61
2024-02-08T02:51:31.442Z,99294.95
2024-02-08T02:55:00.059Z,99294.80
2024-02-08T02:58:28.652Z,99302.71
2024-02-08T03:02:00.416Z,99308.68
2024-02-08T03:05:29.169Z,99310.75
2024-02-08T03:08:57.833Z,99315.68
2024-02-08T03:12:26.657Z,99307.06
2024-02-08T03:15:58.524Z,99310.45
2024-02-08T03:19:27.186Z,99311.70
2024-02-08T03:22:55.971Z,99313.73
2024-02-08T03:26:25.064Z,99316.49
2024-02-08T03:29:53.596Z,99319.36
2024-02-08T03:33:22.265Z,99322.94
2024-02-08T03:36:42.007Z,99327.00
2024-02-08T03:40:11.022Z,99327.20
2024-02-08T03:43:34.479Z,99331.34
2024-02-08T03:47:03.461Z,99337.19
2024-02-08T03:50:33.827Z,99340.30
2024-02-08T03:54:02.680Z,99339.61
2024-02-08T03:57:31.268Z,99341.63
2024-02-08T04:01:00.519Z,99341.62
2024-02-08T04:04:35.265Z,99348.35
2024-02-08T04:08:19.344Z,99352.95
2024-02-08T04:11:46.869Z,99351.45
2024-02-08T04:15:16.970Z,99356.83
2024-02-08T04:18:34.475Z,99359.02
2024-02-08T04:22:01.437Z,99366.98
2024-02-08T04:25:27.081Z,99368.50
2024-02-08T04:28:54.450Z,99368.54
2024-02-08T04:32:24.489Z,99366.38
2024-02-08T04:35:51.760Z,99368.86
2024-02-08T04:39:18.847Z,99361.27
2024-02-08T04:42:46.025Z,99355.15
2024-02-08T04:46:13.067Z,99354.52
2024-02-08T04:49:40.242Z,99351.33
2024-02-08T04:53:07.756Z,99353.70
2024-02-08T04:56:36.801Z,99354.15
2024-02-08T05:00:05.612Z,99354.58
2024-02-08T05:03:34.528Z,99354.50
2024-02-08T05:07:03.437Z,99359.15
2024-02-08T05:10:32.422Z,99365.20
2024-02-08T05:14:01.151Z,99368.46
2024-02-08T05:17:32.826Z,99368.75
2024-02-08T05:21:01.386Z,99372.71
2024-02-08T05:24:29.967Z,99372.92
2024-02-08T05:28:01.147Z,99369.59
2024-02-08T05:31:29.771Z,99373.36
2024-02-08T05:34:58.673Z,99368.33
2024-02-08T05:38:27.536Z,99370.40
2024-02-08T05:41:56.144Z,99366.16
2024-02-08T05:45:40.297Z,99363.95
2024-02-08T05:49:16.511Z,99367.05
2024-02-08T05:52:45.859Z,99371.88
2024-02-08T05:56:14.511Z,99376.86
2024-02-08T05:59:43.314Z,99375.31
2024-02-08T06:03:12.256Z,99374.90
2024-02-08T06:06:56.185Z,99387.35
2024-02-08T06:24:27.655Z,99393.81
2024-02-08T06:28:11.538Z,99407.88
2024-02-08T06:31:41.509Z,99411.55
2024-02-08T06:35:11.056Z,99410.50
2024-02-08T06:38:45.073Z,99419.74
2024-02-08T06:42:30.473Z,99413.59
2024-02-08T06:45:52.869Z,99410.68
2024-02-08T06:49:22.829Z,99414.27
2024-02-08T06:52:49.941Z,99409.34
2024-02-08T06:56:17.084Z,99408.77
2024-02-08T06:59:36.729Z,99408.67
2024-02-08T07:03:04.364Z,99411.95
2024-02-08T07:06:24.424Z,99414.58
2024-02-08T07:09:51.583Z,99418.71
2024-02-08T07:13:19.467Z,99415.31
2024-02-08T07:16:46.328Z,99416.25
2024-02-08T07:20:13.783Z,99414.24
2024-02-08T07:23:24.254Z,99418.26
2024-02-08T07:26:53.951Z,99422.02
2024-02-08T07:30:20.869Z,99432.01
2024-02-08T07:33:47.958Z,99431.40
2024-02-08T07:37:15.601Z,99432.31
2024-02-08T07:40:50.117Z,99432.07
2024-02-08T07:44:19.015Z,99439.73
2024-02-08T07:47:47.614Z,99436.83
2024-02-08T07:51:18.927Z,99438.98
2024-02-08T07:54:47.589Z,99435.27
2024-02-08T07:58:19.509Z,99442.20
2024-02-08T08:01:48.517Z,99448.09
2024-02-08T08:05:13.918Z,99451.01
2024-02-08T08:08:55.077Z,99451.17
2024-02-08T08:12:25.438Z,99450.24
2024-02-08T08:15:54.302Z,99449.52
2024-02-08T08:19:32.267Z,99443.00
2024-02-08T08:23:01.027Z,99443.31
2024-02-08T08:26:22.691Z,99440.87
2024-02-08T08:29:40.047Z,99434.94
2024-02-08T08:33:14.440Z,99440.69
2024-02-08T08:36:23.095Z,99443.05
2024-02-08T08:39:50.265Z,99445.09
2024-02-08T08:43:18.910Z,99440.08
2024-02-08T08:46:47.837Z,99437.10
2024-02-08T08:50:16.768Z,99435.62
2024-02-08T08:53:46.044Z,99439.42
2024-02-08T08:57:15.183Z,99445.02
2024-02-08T09:00:44.008Z,99443.05
2024-02-08T09:04:18.763Z,99445.59
2024-02-08T09:07:47.780Z,99443.75
2024-02-08T09:11:16.495Z,99437.04
2024-02-08T09:14:45.097Z,99433.89
2024-02-08T09:18:10.382Z,99427.95
2024-02-08T09:21:40.520Z,99429.75
2024-02-08T09:25:22.249Z,99428.84
2024-02-08T09:28:59.917Z,99428.39
2024-02-08T09:32:40.849Z,99427.96
2024-02-08T09:36:09.542Z,99430.81
2024-02-08T09:39:38.080Z,99432.10
2024-02-08T09:43:07.071Z,99431.67
2024-02-08T09:46:38.763Z,99435.88
2024-02-08T09:50:07.683Z,99433.49
2024-02-08T09:53:38.282Z,99435.86
2024-02-08T09:56:59.948Z,99433.88
2024-02-08T10:00:09.132Z,99431.39
2024-02-08T10:03:38.042Z,99431.24
2024-02-08T10:07:07.778Z,99424.66
2024-02-08T10:10:39.255Z,99408.85
2024-02-08T10:14:20.502Z,99405.14
2024-02-08T10:18:04.335Z,99393.52
2024-02-08T10:21:33.124Z,99391.30
2024-02-08T10:25:10.914Z,99396.53
2024-02-08T10:28:39.880Z,99408.56
2024-02-08T10:32:08.779Z,99398.88
2024-02-08T10:35:46.840Z,99399.55
2024-02-08T10:39:21.716Z,99385.06
2024-02-08T10:42:50.518Z,99384.36
2024-02-08T10:46:23.717Z,99375.48
2024-02-08T10:49:52.463Z,99367.98
2024-02-08T10:53:22.418Z,99359.02
2024-02-08T10:56:53.752Z,99363.58
2024-02-08T11:00:22.350Z,99367.09
2024-02-08T11:03:57.170Z,99361.56
2024-02-08T11:07:28.822Z,99353.71
2024-02-08T11:10:57.617Z,99349.02
2024-02-08T11:14:26.202Z,99341.12
2024-02-08T11:17:55.061Z,99337.34
2024-02-08T11:21:30.014Z,99334.34
2024-02-08T11:25:01.718Z,99335.02
2024-02-08T11:28:33.304Z,99335.52
2024-02-08T11:32:01.974Z,99331.23
2024-02-08T11:35:30.792Z,99337.90
2024-02-08T11:39:20.870Z,99343.95
2024-02-08T11:42:49.930Z,99348.19
2024-02-08T11:46:18.558Z,99349.40
2024-02-08T11:49:53.352Z,99344.31
2024-02-08T11:53:22.380Z,99342.14
2024-02-08T11:56:51.151Z,99336.38
2024-02-08T12:00:20.326Z,99335.80
2024-02-08T12:03:49.593Z,99325.94
2024-02-08T12:07:18.655Z,99317.72
2024-02-08T12:10:47.814Z,99309.66
2024-02-08T12:14:24.572Z,99300.06
2024-02-08T12:17:56.397Z,99294.52
2024-02-08T12:21:25.227Z,99297.44
2024-02-08T12:24:53.138Z,99299.60
2024-02-08T12:28:01.480Z,99300.05
2024-02-08T12:31:30.125Z,99300.48
2024-02-08T12:34:59.660Z,99298.14
2024-02-08T12:38:31.967Z,99295.25
2024-02-08T12:42:00.792Z,99288.55
2024-02-08T12:45:32.285Z,99283.78
2024-02-08T12:49:01.438Z,99288.55
2024-02-08T12:52:30.323Z,99282.35
2024-02-08T12:56:01.525Z,99278.52
2024-02-08T12:59:42.072Z,99277.31
2024-02-08T13:03:10.680Z,99272.91
2024-02-08T13:06:43.306Z,99267.65
2024-02-08T13:10:11.996Z,99260.27
2024-02-08T13:13:41.398Z,99252.31
2024-02-08T13:17:08.568Z,99248.50
2024-02-08T13:20:30.540Z,99247.48
2024-02-08T13:23:59.326Z,99250.14
2024-02-08T13:27:27.895Z,99249.99
2024-02-08T13:31:09.448Z,99247.07
2024-02-08T13:34:38.770Z,99243.95
2024-02-08T13:38:06.835Z,99238.02
2024-02-08T13:41:35.866Z,99242.02
2024-02-08T13:45:04.707Z,99236.73
2024-02-08T13:48:34.025Z,99237.03
2024-02-08T13:52:02.886Z,99236.64
2024-02-08T13:55:46.601Z,99235.55
2024-02-08T13:59:22.474Z,99240.17
2024-02-08T14:02:51.293Z,99240.42
2024-02-08T14:06:21.946Z,99237.70
2024-02-08T14:09:52.769Z,99240.15
2024-02-08T14:13:21.428Z,99233.20
2024-02-08T14:16:50.555Z,99242.38
2024-02-08T14:20:19.622Z,99236.39
2024-02-08T14:23:48.343Z,99236.19
2024-02-08T14:27:16.864Z,99236.47
2024-02-08T14:30:45.846Z,99235.92
2024-02-08T14:34:14.767Z,99243.08
2024-02-08T14:37:43.672Z,99238.66
2024-02-08T14:41:15.480Z,99238.11
2024-02-08T14:44:44.094Z,99243.77
2024-02-08T14:48:13.100Z,99228.45
2024-02-08T14:51:44.704Z,99226.77
2024-02-08T14:55:13.437Z,99223.97
2024-02-08T14:58:49.553Z,99228.45
2024-02-08T15:02:26.827Z,99218.80
2024-02-08T15:06:02.072Z,99207.48
2024-02-08T15:09:29.549Z,99203.52
2024-02-08T15:13:14.589Z,99207.66
2024-02-08T15:16:43.470Z,99206.39
2024-02-08T15:20:12.318Z,99200.75
2024-02-08T15:23:53.129Z,99208.25
2024-02-08T15:27:27.603Z,99209.02
2024-02-08T15:30:59.865Z,99207.22
2024-02-08T15:34:38.122Z,99204.07
2024-02-08T15:41:38.901Z,99204.39
2024-02-08T15:45:07.716Z,99194.10
2024-02-08T15:48:46.642Z,99190.64
2024-02-08T15:52:16.031Z,99194.13
2024-02-08T15:55:40.227Z,99190.72
2024-02-08T15:59:09.081Z,99186.48
2024-02-08T16:02:38.086Z,99183.22
2024-02-08T16:06:06.862Z,99181.45
2024-02-08T16:09:47.320Z,99172.34
2024-02-08T16:13:16.096Z,99172.96
2024-02-08T16:16:45.203Z,99174.54
2024-02-08T16:20:13.802Z,99176.99
2024-02-08T16:23:42.673Z,99179.77
2024-02-08T16:27:11.257Z,99186.08
2024-02-08T16:30:52.312Z,99191.90
2024-02-08T16:34:21.144Z,99193.67
2024-02-08T16:38:03.142Z,99199.78
2024-02-08T16:41:31.787Z,99192.87
2024-02-08T16:45:00.616Z,99192.16
2024-02-08T16:48:35.771Z,99191.61
2024-02-08T16:52:07.588Z,99187.21
2024-02-08T16:55:37.194Z,99185.30
2024-02-08T16:59:05.557Z,99188.42
2024-02-08T17:02:34.329Z,99189.21
2024-02-08T17:06:12.158Z,99187.85
2024-02-08T17:09:41.341Z,99192.86
2024-02-08T17:13:19.043Z,99186.14
2024-02-08T17:16:47.781Z,99184.27
2024-02-08T17:20:19.697Z,99186.06
2024-02-08T17:23:51.234Z,99186.37
2024-02-08T17:27:25.930Z,99178.82
2024-02-08T17:31:13.100Z,99175.79
2024-02-08T17:34:45.056Z,99169.87
2024-02-08T17:38:13.781Z,99167.85
2024-02-08T17:41:42.613Z,99165.69
2024-02-08T17:45:11.159Z,99160.66
2024-02-08T17:48:40.830Z,99159.32
2024-02-08T17:52:12.666Z,99157.45
2024-02-08T17:55:41.237Z,99158.10
2024-02-08T17:59:10.153Z,99159.27
2024-02-08T18:02:40.098Z,99160.10
2024-02-08T18:06:09.069Z,99153.71
2024-02-08T18:09:37.066Z,99149.86
2024-02-08T18:13:06.205Z,99149.39
2024-02-08T18:16:35.113Z,99149.59
2024-02-08T18:20:05.936Z,99146.73
2024-02-08T18:23:35.085Z,99146.04
2024-02-08T18:27:04.097Z,99143.02
2024-02-08T18:30:33.842Z,99142.05
2024-02-08T18:34:02.809Z,99137.88
2024-02-08T18:37:32.494Z,99139.52
2024-02-08T18:41:01.092Z,99136.34
2024-02-08T18:44:32.098Z,99124.96
2024-02-08T18:48:00.790Z,99123.98
2024-02-08T18:51:29.639Z,99119.29
2024-02-08T18:54:58.270Z,99122.60
2024-02-08T18:58:26.949Z,99117.59
2024-02-08T19:02:04.775Z,99114.25
2024-02-08T19:05:37.630Z,99106.70
2024-02-08T19:09:06.996Z,99103.88
2024-02-08T19:12:35.928Z,99092.00
2024-02-08T19:16:04.845Z,99081.15
2024-02-08T19:19:33.101Z,99079.02
2024-02-08T19:23:01.876Z,99080.53
2024-02-08T19:26:30.658Z,99072.65
2024-02-08T19:29:59.369Z,99069.64
2024-02-08T19:33:28.320Z,99062.46
2024-02-08T19:36:57.050Z,99059.14
2024-02-08T19:40:25.946Z,99058.27
2024-02-08T19:43:57.006Z,99059.09
2024-02-08T19:47:34.805Z,99055.02
2024-02-08T19:51:03.647Z,99054.87
2024-02-08T19:54:25.594Z,99047.42
2024-02-08T19:57:58.016Z,99044.56
2024-02-08T20:01:32.991Z,99039.03
2024-02-08T20:05:03.307Z,99041.02
2024-02-08T20:08:32.442Z,99042.02
2024-02-08T20:12:01.225Z,99043.36
2024-02-08T20:15:38.927Z,99041.16
2024-02-08T20:19:08.381Z,99040.85
2024-02-08T20:22:40.278Z,99037.85
2024-02-08T20:26:12.180Z,99038.20
2024-02-08T20:29:41.937Z,99031.78
2024-02-08T20:33:10.953Z,99035.33
2024-02-08T20:36:39.719Z,99040.36
2024-02-08T20:40:08.497Z,99034.16
2024-02-08T20:43:36.484Z,99032.99
2024-02-08T20:47:12.227Z,99038.51
2024-02-08T20:50:43.877Z,99041.23
2024-02-08T20:54:13.581Z,99037.05
2024-02-08T20:57:43.073Z,99034.39
2024-02-08T21:01:12.338Z,99032.08
2024-02-08T21:04:41.047Z,99028.20
2024-02-08T21:08:09.940Z,99024.98
2024-02-08T21:11:41.642Z,99025.81
2024-02-08T21:15:09.317Z,99023.48
2024-02-08T21:18:41.006Z,99023.45
2024-02-08T21:22:09.310Z,99030.28
2024-02-08T21:25:38.671Z,99025.30
2024-02-08T21:29:10.225Z,99020.27
2024-02-08T21:32:38.875Z,99021.45
2024-02-08T21:36:08.030Z,99021.28
2024-02-08T21:39:36.757Z,99021.77
2024-02-08T21:43:05.710Z,99024.13
2024-02-08T21:46:34.649Z,99023.62
2024-02-08T21:50:03.600Z,99021.44
2024-02-08T21:53:32.346Z,99027.80
2024-02-08T21:57:01.002Z,99023.80
2024-02-08T22:00:31.197Z,99026.36
2024-02-08T22:04:01.389Z,99025.34
2024-02-08T22:07:30.322Z,99022.33
2024-02-08T22:11:00.498Z,99027.17
2024-02-08T22:14:29.423Z,99025.34
2024-02-08T22:17:58.820Z,99028.17
2024-02-08T22:21:27.497Z,99028.98
2024-02-08T22:24:56.262Z,99035.69
2024-02-08T22:28:25.238Z,99035.73
2024-02-08T22:31:54.600Z,99035.88
2024-02-08T22:35:23.536Z,99031.86
2024-02-08T22:38:52.440Z,99037.91
2024-02-08T22:42:27.013Z,99038.95
2024-02-08T22:45:55.967Z,99037.08
2024-02-08T22:49:24.960Z,99031.73
2024-02-08T22:52:54.035Z,99031.77
2024-02-08T22:56:24.706Z,99031.75
2024-02-08T22:59:53.802Z,99030.10
2024-02-08T23:03:28.651Z,99034.79
2024-02-08T23:07:00.494Z,99038.45
2024-02-08T23:10:29.518Z,99035.64
2024-02-08T23:13:58.601Z,99032.14
2024-02-08T23:17:27.587Z,99031.46
2024-02-08T23:20:56.812Z,99033.65
2024-02-08T23:24:25.645Z,99035.54
2024-02-08T23:27:54.684Z,99035.23
2024-02-08T23:31:24.197Z,99035.44
2024-02-08T23:34:52.909Z,99029.43
2024-02-08T23:38:21.858Z,99028.62
2024-02-08T23:41:51.055Z,99029.28
2024-02-08T23:45:20.012Z,99025.42
2024-02-08T23:48:52.746Z,99017.38
2024-02-08T23:52:21.807Z,99023.75
2024-02-08T23:55:50.635Z,99020.41
2024-02-08T23:59:19.582Z,99025.96
